sensor_id;sensor_type;location;lat;lon;timestamp;P1;durP1;ratioP1;P2;durP2;ratioP2
81841;SDS011;71284;50.918;7.092;2024-02-16T00:01:09;0.73;;;0.70;;
81841;SDS011;71284;50.918;7.092;2024-02-16T00:03:35;5.70;;;0.97;;
81841;SDS011;71284;50.918;7.092;2024-02-16T00:06:02;1.57;;;1.23;;
81841;SDS011;71284;50.918;7.092;2024-02-16T00:08:29;2.13;;;1.23;;
81841;SDS011;71284;50.918;7.092;2024-02-16T00:10:55;2.70;;;0.90;;
81841;SDS011;71284;50.918;7.092;2024-02-16T00:13:22;6.73;;;1.07;;
81841;SDS011;71284;50.918;7.092;2024-02-16T00:15:49;11.20;;;3.37;;
81841;SDS011;71284;50.918;7.092;2024-02-16T00:18:15;3.00;;;1.33;;
81841;SDS011;71284;50.918;7.092;2024-02-16T00:20:42;1.67;;;0.97;;
81841;SDS011;71284;50.918;7.092;2024-02-16T00:23:08;4.63;;;1.47;;
81841;SDS011;71284;50.918;7.092;2024-02-16T00:25:35;2.43;;;1.27;;
81841;SDS011;71284;50.918;7.092;2024-02-16T00:28:02;5.30;;;1.43;;
81841;SDS011;71284;50.918;7.092;2024-02-16T00:30:28;3.00;;;1.20;;
81841;SDS011;71284;50.918;7.092;2024-02-16T00:32:55;1.70;;;1.60;;
81841;SDS011;71284;50.918;7.092;2024-02-16T00:35:21;3.90;;;1.40;;
81841;SDS011;71284;50.918;7.092;2024-02-16T00:37:48;3.43;;;1.17;;
81841;SDS011;71284;50.918;7.092;2024-02-16T00:40:15;2.80;;;1.17;;
81841;SDS011;71284;50.918;7.092;2024-02-16T00:42:41;2.13;;;0.90;;
81841;SDS011;71284;50.918;7.092;2024-02-16T00:45:08;3.13;;;1.33;;
81841;SDS011;71284;50.918;7.092;2024-02-16T00:47:35;1.67;;;1.13;;
81841;SDS011;71284;50.918;7.092;2024-02-16T00:50:01;2.43;;;1.13;;
81841;SDS011;71284;50.918;7.092;2024-02-16T00:52:28;1.63;;;0.80;;
81841;SDS011;71284;50.918;7.092;2024-02-16T00:54:54;1.73;;;0.70;;
81841;SDS011;71284;50.918;7.092;2024-02-16T00:57:21;1.90;;;0.87;;
81841;SDS011;71284;50.918;7.092;2024-02-16T00:59:48;2.10;;;1.17;;
81841;SDS011;71284;50.918;7.092;2024-02-16T01:02:14;1.07;;;0.97;;
81841;SDS011;71284;50.918;7.092;2024-02-16T01:04:41;2.40;;;0.83;;
81841;SDS011;71284;50.918;7.092;2024-02-16T01:07:07;5.90;;;1.60;;
81841;SDS011;71284;50.918;7.092;2024-02-16T01:09:34;1.17;;;1.17;;
81841;SDS011;71284;50.918;7.092;2024-02-16T01:12:01;5.83;;;1.37;;
81841;SDS011;71284;50.918;7.092;2024-02-16T01:14:27;2.07;;;1.30;;
81841;SDS011;71284;50.918;7.092;2024-02-16T01:16:54;2.63;;;1.00;;
81841;SDS011;71284;50.918;7.092;2024-02-16T01:19:20;7.10;;;1.07;;
81841;SDS011;71284;50.918;7.092;2024-02-16T01:21:47;3.37;;;0.93;;
81841;SDS011;71284;50.918;7.092;2024-02-16T01:24:14;2.20;;;0.90;;
81841;SDS011;71284;50.918;7.092;2024-02-16T01:26:40;1.50;;;1.03;;
81841;SDS011;71284;50.918;7.092;2024-02-16T01:29:07;1.03;;;0.93;;
81841;SDS011;71284;50.918;7.092;2024-02-16T01:31:33;1.50;;;1.23;;
81841;SDS011;71284;50.918;7.092;2024-02-16T01:34:00;1.13;;;1.00;;
81841;SDS011;71284;50.918;7.092;2024-02-16T01:36:27;0.90;;;0.60;;
81841;SDS011;71284;50.918;7.092;2024-02-16T01:38:53;1.47;;;1.00;;
81841;SDS011;71284;50.918;7.092;2024-02-16T01:41:20;2.00;;;1.67;;
81841;SDS011;71284;50.918;7.092;2024-02-16T01:43:46;1.60;;;0.90;;
81841;SDS011;71284;50.918;7.092;2024-02-16T01:46:13;4.03;;;1.30;;
81841;SDS011;71284;50.918;7.092;2024-02-16T01:48:39;20.03;;;1.23;;
81841;SDS011;71284;50.918;7.092;2024-02-16T01:51:07;1.50;;;1.23;;
81841;SDS011;71284;50.918;7.092;2024-02-16T01:53:33;2.40;;;0.60;;
81841;SDS011;71284;50.918;7.092;2024-02-16T01:55:59;1.00;;;0.80;;
81841;SDS011;71284;50.918;7.092;2024-02-16T01:58:26;1.37;;;1.27;;
81841;SDS011;71284;50.918;7.092;2024-02-16T02:00:52;2.10;;;1.37;;
81841;SDS011;71284;50.918;7.092;2024-02-16T02:03:19;2.20;;;1.07;;
81841;SDS011;71284;50.918;7.092;2024-02-16T02:05:46;6.63;;;0.93;;
81841;SDS011;71284;50.918;7.092;2024-02-16T02:08:12;1.97;;;1.10;;
81841;SDS011;71284;50.918;7.092;2024-02-16T02:10:39;1.27;;;1.00;;
81841;SDS011;71284;50.918;7.092;2024-02-16T02:13:06;1.57;;;1.13;;
81841;SDS011;71284;50.918;7.092;2024-02-16T02:15:33;1.07;;;0.97;;
81841;SDS011;71284;50.918;7.092;2024-02-16T02:17:59;1.20;;;1.00;;
81841;SDS011;71284;50.918;7.092;2024-02-16T02:20:26;1.10;;;1.00;;
81841;SDS011;71284;50.918;7.092;2024-02-16T02:22:52;1.10;;;0.80;;
81841;SDS011;71284;50.918;7.092;2024-02-16T02:25:19;1.37;;;0.97;;
81841;SDS011;71284;50.918;7.092;2024-02-16T02:27:45;4.83;;;1.30;;
81841;SDS011;71284;50.918;7.092;2024-02-16T02:30:12;3.07;;;0.90;;
81841;SDS011;71284;50.918;7.092;2024-02-16T02:32:39;1.37;;;1.27;;
81841;SDS011;71284;50.918;7.092;2024-02-16T02:35:06;1.57;;;1.20;;
81841;SDS011;71284;50.918;7.092;2024-02-16T02:37:33;0.90;;;0.70;;
81841;SDS011;71284;50.918;7.092;2024-02-16T02:39:59;1.83;;;1.10;;
81841;SDS011;71284;50.918;7.092;2024-02-16T02:42:26;1.77;;;1.30;;
81841;SDS011;71284;50.918;7.092;2024-02-16T02:44:53;3.40;;;1.33;;
81841;SDS011;71284;50.918;7.092;2024-02-16T02:47:19;3.33;;;1.27;;
81841;SDS011;71284;50.918;7.092;2024-02-16T02:49:46;3.97;;;1.30;;
81841;SDS011;71284;50.918;7.092;2024-02-16T02:52:12;2.80;;;1.07;;
81841;SDS011;71284;50.918;7.092;2024-02-16T02:54:39;5.97;;;1.67;;
81841;SDS011;71284;50.918;7.092;2024-02-16T02:57:06;3.60;;;1.43;;
81841;SDS011;71284;50.918;7.092;2024-02-16T02:59:32;2.37;;;1.07;;
81841;SDS011;71284;50.918;7.092;2024-02-16T03:01:59;1.00;;;1.00;;
81841;SDS011;71284;50.918;7.092;2024-02-16T03:04:25;6.33;;;1.30;;
81841;SDS011;71284;50.918;7.092;2024-02-16T03:06:52;4.10;;;1.13;;
81841;SDS011;71284;50.918;7.092;2024-02-16T03:09:19;4.50;;;0.90;;
81841;SDS011;71284;50.918;7.092;2024-02-16T03:11:45;3.63;;;1.13;;
81841;SDS011;71284;50.918;7.092;2024-02-16T03:14:13;0.90;;;0.90;;
81841;SDS011;71284;50.918;7.092;2024-02-16T03:16:39;2.50;;;1.13;;
81841;SDS011;71284;50.918;7.092;2024-02-16T03:19:06;0.70;;;0.70;;
81841;SDS011;71284;50.918;7.092;2024-02-16T03:21:33;3.17;;;1.90;;
81841;SDS011;71284;50.918;7.092;2024-02-16T03:24:00;0.87;;;0.83;;
81841;SDS011;71284;50.918;7.092;2024-02-16T03:26:26;1.40;;;1.00;;
81841;SDS011;71284;50.918;7.092;2024-02-16T03:28:53;25.03;;;1.40;;
81841;SDS011;71284;50.918;7.092;2024-02-16T03:31:20;2.40;;;0.80;;
81841;SDS011;71284;50.918;7.092;2024-02-16T03:33:46;1.37;;;1.20;;
81841;SDS011;71284;50.918;7.092;2024-02-16T03:36:13;24.60;;;1.67;;
81841;SDS011;71284;50.918;7.092;2024-02-16T03:38:41;3.13;;;0.90;;
81841;SDS011;71284;50.918;7.092;2024-02-16T03:41:12;6.80;;;1.50;;
81841;SDS011;71284;50.918;7.092;2024-02-16T03:43:35;5.63;;;1.60;;
81841;SDS011;71284;50.918;7.092;2024-02-16T03:46:01;1.10;;;1.00;;
81841;SDS011;71284;50.918;7.092;2024-02-16T03:48:28;4.30;;;0.87;;
81841;SDS011;71284;50.918;7.092;2024-02-16T03:50:54;2.70;;;0.67;;
81841;SDS011;71284;50.918;7.092;2024-02-16T03:53:21;1.10;;;1.00;;
81841;SDS011;71284;50.918;7.092;2024-02-16T03:55:47;2.40;;;1.17;;
81841;SDS011;71284;50.918;7.092;2024-02-16T03:58:14;1.77;;;0.70;;
81841;SDS011;71284;50.918;7.092;2024-02-16T04:00:41;2.23;;;1.33;;
81841;SDS011;71284;50.918;7.092;2024-02-16T04:03:07;1.50;;;1.00;;
81841;SDS011;71284;50.918;7.092;2024-02-16T04:05:34;2.23;;;1.27;;
81841;SDS011;71284;50.918;7.092;2024-02-16T04:08:00;1.37;;;1.20;;
81841;SDS011;71284;50.918;7.092;2024-02-16T04:10:27;2.03;;;0.90;;
81841;SDS011;71284;50.918;7.092;2024-02-16T04:12:55;1.30;;;1.20;;
81841;SDS011;71284;50.918;7.092;2024-02-16T04:15:21;2.50;;;0.83;;
81841;SDS011;71284;50.918;7.092;2024-02-16T04:17:48;3.50;;;0.83;;
81841;SDS011;71284;50.918;7.092;2024-02-16T04:20:15;0.87;;;0.87;;
81841;SDS011;71284;50.918;7.092;2024-02-16T04:22:42;4.67;;;1.10;;
81841;SDS011;71284;50.918;7.092;2024-02-16T04:25:08;1.03;;;1.00;;
81841;SDS011;71284;50.918;7.092;2024-02-16T04:27:35;2.00;;;1.13;;
81841;SDS011;71284;50.918;7.092;2024-02-16T04:30:02;4.60;;;1.10;;
81841;SDS011;71284;50.918;7.092;2024-02-16T04:32:28;1.40;;;1.30;;
81841;SDS011;71284;50.918;7.092;2024-02-16T04:34:55;4.10;;;0.70;;
81841;SDS011;71284;50.918;7.092;2024-02-16T04:37:22;3.70;;;1.23;;
81841;SDS011;71284;50.918;7.092;2024-02-16T04:39:49;1.27;;;1.17;;
81841;SDS011;71284;50.918;7.092;2024-02-16T04:42:16;2.20;;;0.90;;
81841;SDS011;71284;50.918;7.092;2024-02-16T04:44:42;1.23;;;1.13;;
81841;SDS011;71284;50.918;7.092;2024-02-16T04:47:09;1.03;;;1.03;;
81841;SDS011;71284;50.918;7.092;2024-02-16T04:49:35;1.63;;;0.90;;
81841;SDS011;71284;50.918;7.092;2024-02-16T04:52:02;5.23;;;1.10;;
81841;SDS011;71284;50.918;7.092;2024-02-16T04:54:28;1.47;;;1.10;;
81841;SDS011;71284;50.918;7.092;2024-02-16T04:56:55;4.03;;;1.30;;
81841;SDS011;71284;50.918;7.092;2024-02-16T04:59:22;2.20;;;1.23;;
81841;SDS011;71284;50.918;7.092;2024-02-16T05:01:48;2.27;;;1.33;;
81841;SDS011;71284;50.918;7.092;2024-02-16T05:04:15;4.53;;;1.47;;
81841;SDS011;71284;50.918;7.092;2024-02-16T05:06:41;0.93;;;0.93;;
81841;SDS011;71284;50.918;7.092;2024-02-16T05:09:09;1.90;;;0.80;;
81841;SDS011;71284;50.918;7.092;2024-02-16T05:11:35;5.30;;;1.50;;
81841;SDS011;71284;50.918;7.092;2024-02-16T05:14:02;3.43;;;1.23;;
81841;SDS011;71284;50.918;7.092;2024-02-16T05:16:29;3.33;;;2.23;;
81841;SDS011;71284;50.918;7.092;2024-02-16T05:18:55;2.13;;;1.63;;
81841;SDS011;71284;50.918;7.092;2024-02-16T05:21:23;3.70;;;1.20;;
81841;SDS011;71284;50.918;7.092;2024-02-16T05:23:49;6.53;;;2.10;;
81841;SDS011;71284;50.918;7.092;2024-02-16T05:26:16;1.93;;;0.93;;
81841;SDS011;71284;50.918;7.092;2024-02-16T05:28:42;4.70;;;1.67;;
81841;SDS011;71284;50.918;7.092;2024-02-16T05:31:13;7.30;;;1.40;;
81841;SDS011;71284;50.918;7.092;2024-02-16T05:33:40;2.03;;;1.37;;
81841;SDS011;71284;50.918;7.092;2024-02-16T05:36:06;4.93;;;2.63;;
81841;SDS011;71284;50.918;7.092;2024-02-16T05:38:33;1.60;;;1.37;;
81841;SDS011;71284;50.918;7.092;2024-02-16T05:41:00;1.33;;;1.23;;
81841;SDS011;71284;50.918;7.092;2024-02-16T05:43:26;1.60;;;1.40;;
81841;SDS011;71284;50.918;7.092;2024-02-16T05:45:53;5.13;;;1.27;;
81841;SDS011;71284;50.918;7.092;2024-02-16T05:48:19;8.73;;;2.30;;
81841;SDS011;71284;50.918;7.092;2024-02-16T05:50:46;1.27;;;1.17;;
81841;SDS011;71284;50.918;7.092;2024-02-16T05:53:13;5.40;;;1.77;;
81841;SDS011;71284;50.918;7.092;2024-02-16T05:55:39;3.80;;;1.50;;
81841;SDS011;71284;50.918;7.092;2024-02-16T05:58:06;6.83;;;1.67;;
81841;SDS011;71284;50.918;7.092;2024-02-16T06:00:33;1.23;;;1.13;;
81841;SDS011;71284;50.918;7.092;2024-02-16T06:02:59;1.20;;;1.10;;
81841;SDS011;71284;50.918;7.092;2024-02-16T06:05:26;7.30;;;1.47;;
81841;SDS011;71284;50.918;7.092;2024-02-16T06:07:52;2.40;;;1.57;;
81841;SDS011;71284;50.918;7.092;2024-02-16T06:10:19;1.47;;;1.37;;
81841;SDS011;71284;50.918;7.092;2024-02-16T06:12:45;1.03;;;0.93;;
81841;SDS011;71284;50.918;7.092;2024-02-16T06:15:12;3.20;;;1.50;;
81841;SDS011;71284;50.918;7.092;2024-02-16T06:17:39;2.30;;;1.40;;
81841;SDS011;71284;50.918;7.092;2024-02-16T06:20:05;1.63;;;1.23;;
81841;SDS011;71284;50.918;7.092;2024-02-16T06:22:32;3.17;;;1.17;;
81841;SDS011;71284;50.918;7.092;2024-02-16T06:24:59;2.00;;;1.63;;
81841;SDS011;71284;50.918;7.092;2024-02-16T06:27:26;1.33;;;1.20;;
81841;SDS011;71284;50.918;7.092;2024-02-16T06:29:52;7.30;;;1.50;;
81841;SDS011;71284;50.918;7.092;2024-02-16T06:32:19;3.03;;;1.37;;
81841;SDS011;71284;50.918;7.092;2024-02-16T06:34:45;1.33;;;1.23;;
81841;SDS011;71284;50.918;7.092;2024-02-16T06:37:12;2.30;;;1.30;;
81841;SDS011;71284;50.918;7.092;2024-02-16T06:39:39;5.70;;;1.30;;
81841;SDS011;71284;50.918;7.092;2024-02-16T06:42:05;1.73;;;1.20;;
81841;SDS011;71284;50.918;7.092;2024-02-16T06:44:32;9.13;;;3.07;;
81841;SDS011;71284;50.918;7.092;2024-02-16T06:46:58;3.60;;;2.17;;
81841;SDS011;71284;50.918;7.092;2024-02-16T06:49:25;1.53;;;1.03;;
81841;SDS011;71284;50.918;7.092;2024-02-16T06:51:52;4.73;;;1.83;;
81841;SDS011;71284;50.918;7.092;2024-02-16T06:54:18;4.60;;;1.53;;
81841;SDS011;71284;50.918;7.092;2024-02-16T06:56:45;2.70;;;1.77;;
81841;SDS011;71284;50.918;7.092;2024-02-16T06:59:11;1.20;;;1.20;;
81841;SDS011;71284;50.918;7.092;2024-02-16T07:01:38;2.67;;;1.00;;
81841;SDS011;71284;50.918;7.092;2024-02-16T07:04:05;3.17;;;1.50;;
81841;SDS011;71284;50.918;7.092;2024-02-16T07:06:31;0.90;;;0.90;;
81841;SDS011;71284;50.918;7.092;2024-02-16T07:08:58;1.67;;;1.17;;
81841;SDS011;71284;50.918;7.092;2024-02-16T07:11:24;4.93;;;1.43;;
81841;SDS011;71284;50.918;7.092;2024-02-16T07:13:51;1.57;;;1.40;;
81841;SDS011;71284;50.918;7.092;2024-02-16T07:16:17;2.03;;;1.37;;
81841;SDS011;71284;50.918;7.092;2024-02-16T07:18:44;3.47;;;1.40;;
81841;SDS011;71284;50.918;7.092;2024-02-16T07:21:11;1.53;;;1.40;;
81841;SDS011;71284;50.918;7.092;2024-02-16T07:23:37;1.23;;;1.23;;
81841;SDS011;71284;50.918;7.092;2024-02-16T07:26:04;8.53;;;2.07;;
81841;SDS011;71284;50.918;7.092;2024-02-16T07:28:30;2.33;;;1.40;;
81841;SDS011;71284;50.918;7.092;2024-02-16T07:30:57;2.90;;;1.10;;
81841;SDS011;71284;50.918;7.092;2024-02-16T07:33:24;2.30;;;1.63;;
81841;SDS011;71284;50.918;7.092;2024-02-16T07:35:50;6.53;;;3.20;;
81841;SDS011;71284;50.918;7.092;2024-02-16T07:38:17;1.37;;;1.10;;
81841;SDS011;71284;50.918;7.092;2024-02-16T07:40:43;2.10;;;1.27;;
81841;SDS011;71284;50.918;7.092;2024-02-16T07:43:10;2.90;;;1.93;;
81841;SDS011;71284;50.918;7.092;2024-02-16T07:45:37;4.10;;;1.37;;
81841;SDS011;71284;50.918;7.092;2024-02-16T07:48:04;4.37;;;1.27;;
81841;SDS011;71284;50.918;7.092;2024-02-16T07:50:30;3.80;;;2.60;;
81841;SDS011;71284;50.918;7.092;2024-02-16T07:52:57;2.40;;;1.47;;
81841;SDS011;71284;50.918;7.092;2024-02-16T07:55:23;2.87;;;1.73;;
81841;SDS011;71284;50.918;7.092;2024-02-16T07:57:50;2.60;;;1.17;;
81841;SDS011;71284;50.918;7.092;2024-02-16T08:00:17;10.23;;;1.33;;
81841;SDS011;71284;50.918;7.092;2024-02-16T08:02:43;1.20;;;1.10;;
81841;SDS011;71284;50.918;7.092;2024-02-16T08:05:10;1.23;;;1.00;;
81841;SDS011;71284;50.918;7.092;2024-02-16T08:07:36;1.73;;;1.63;;
81841;SDS011;71284;50.918;7.092;2024-02-16T08:10:03;1.17;;;1.17;;
81841;SDS011;71284;50.918;7.092;2024-02-16T08:12:30;13.03;;;1.40;;
81841;SDS011;71284;50.918;7.092;2024-02-16T08:14:57;4.53;;;1.07;;
81841;SDS011;71284;50.918;7.092;2024-02-16T08:17:23;4.80;;;1.37;;
81841;SDS011;71284;50.918;7.092;2024-02-16T08:19:51;2.73;;;1.27;;
81841;SDS011;71284;50.918;7.092;2024-02-16T08:22:18;6.63;;;1.60;;
81841;SDS011;71284;50.918;7.092;2024-02-16T08:24:44;1.40;;;1.30;;
81841;SDS011;71284;50.918;7.092;2024-02-16T08:27:12;5.93;;;2.00;;
81841;SDS011;71284;50.918;7.092;2024-02-16T08:29:39;1.80;;;1.23;;
81841;SDS011;71284;50.918;7.092;2024-02-16T08:32:06;2.17;;;1.80;;
81841;SDS011;71284;50.918;7.092;2024-02-16T08:34:32;2.67;;;2.47;;
81841;SDS011;71284;50.918;7.092;2024-02-16T08:36:59;3.50;;;1.33;;
81841;SDS011;71284;50.918;7.092;2024-02-16T08:39:25;1.50;;;1.40;;
81841;SDS011;71284;50.918;7.092;2024-02-16T08:41:52;4.80;;;2.27;;
81841;SDS011;71284;50.918;7.092;2024-02-16T08:44:19;3.00;;;2.70;;
81841;SDS011;71284;50.918;7.092;2024-02-16T08:46:45;6.73;;;2.53;;
81841;SDS011;71284;50.918;7.092;2024-02-16T08:49:12;3.40;;;3.10;;
81841;SDS011;71284;50.918;7.092;2024-02-16T08:51:38;5.27;;;2.83;;
81841;SDS011;71284;50.918;7.092;2024-02-16T08:54:05;4.47;;;2.90;;
81841;SDS011;71284;50.918;7.092;2024-02-16T08:56:32;6.33;;;1.83;;
81841;SDS011;71284;50.918;7.092;2024-02-16T08:58:58;1.80;;;1.70;;
81841;SDS011;71284;50.918;7.092;2024-02-16T09:01:31;1.57;;;1.20;;
81841;SDS011;71284;50.918;7.092;2024-02-16T09:03:57;4.93;;;1.97;;
81841;SDS011;71284;50.918;7.092;2024-02-16T09:06:24;3.67;;;1.90;;
81841;SDS011;71284;50.918;7.092;2024-02-16T09:08:51;2.03;;;1.83;;
81841;SDS011;71284;50.918;7.092;2024-02-16T09:11:17;1.90;;;1.30;;
81841;SDS011;71284;50.918;7.092;2024-02-16T09:13:44;4.20;;;1.70;;
81841;SDS011;71284;50.918;7.092;2024-02-16T09:16:10;5.03;;;1.10;;
81841;SDS011;71284;50.918;7.092;2024-02-16T09:18:37;3.83;;;1.60;;
81841;SDS011;71284;50.918;7.092;2024-02-16T09:21:04;2.20;;;1.60;;
81841;SDS011;71284;50.918;7.092;2024-02-16T09:23:31;3.33;;;1.70;;
81841;SDS011;71284;50.918;7.092;2024-02-16T09:25:57;2.90;;;1.60;;
81841;SDS011;71284;50.918;7.092;2024-02-16T09:28:23;1.53;;;1.43;;
81841;SDS011;71284;50.918;7.092;2024-02-16T09:30:50;2.43;;;1.50;;
81841;SDS011;71284;50.918;7.092;2024-02-16T09:33:16;2.07;;;1.40;;
81841;SDS011;71284;50.918;7.092;2024-02-16T09:35:43;3.93;;;1.20;;
81841;SDS011;71284;50.918;7.092;2024-02-16T09:38:10;3.90;;;1.10;;
81841;SDS011;71284;50.918;7.092;2024-02-16T09:40:36;3.60;;;1.77;;
81841;SDS011;71284;50.918;7.092;2024-02-16T09:43:03;1.50;;;1.40;;
81841;SDS011;71284;50.918;7.092;2024-02-16T09:45:30;10.60;;;1.40;;
81841;SDS011;71284;50.918;7.092;2024-02-16T09:47:56;7.57;;;1.80;;
81841;SDS011;71284;50.918;7.092;2024-02-16T09:50:23;2.80;;;1.90;;
81841;SDS011;71284;50.918;7.092;2024-02-16T09:52:50;2.10;;;1.33;;
81841;SDS011;71284;50.918;7.092;2024-02-16T09:55:16;4.30;;;1.30;;
81841;SDS011;71284;50.918;7.092;2024-02-16T09:57:43;7.37;;;1.60;;
81841;SDS011;71284;50.918;7.092;2024-02-16T10:00:09;1.03;;;0.93;;
81841;SDS011;71284;50.918;7.092;2024-02-16T10:02:42;1.53;;;1.40;;
81841;SDS011;71284;50.918;7.092;2024-02-16T10:05:10;2.60;;;1.70;;
81841;SDS011;71284;50.918;7.092;2024-02-16T10:07:35;5.00;;;1.60;;
81841;SDS011;71284;50.918;7.092;2024-02-16T10:10:02;4.73;;;1.40;;
81841;SDS011;71284;50.918;7.092;2024-02-16T10:12:29;1.57;;;1.47;;
81841;SDS011;71284;50.918;7.092;2024-02-16T10:14:55;1.60;;;1.27;;
81841;SDS011;71284;50.918;7.092;2024-02-16T10:17:22;2.03;;;1.30;;
81841;SDS011;71284;50.918;7.092;2024-02-16T10:22:21;1.83;;;1.30;;
81841;SDS011;71284;50.918;7.092;2024-02-16T10:24:47;3.20;;;1.27;;
81841;SDS011;71284;50.918;7.092;2024-02-16T10:27:14;5.00;;;1.87;;
81841;SDS011;71284;50.918;7.092;2024-02-16T10:29:43;4.83;;;2.00;;
81841;SDS011;71284;50.918;7.092;2024-02-16T10:32:09;1.50;;;1.30;;
81841;SDS011;71284;50.918;7.092;2024-02-16T10:34:35;3.17;;;1.70;;
81841;SDS011;71284;50.918;7.092;2024-02-16T10:37:02;1.50;;;1.40;;
81841;SDS011;71284;50.918;7.092;2024-02-16T10:39:28;5.90;;;2.00;;
81841;SDS011;71284;50.918;7.092;2024-02-16T10:41:55;7.90;;;2.03;;
81841;SDS011;71284;50.918;7.092;2024-02-16T10:44:22;5.20;;;1.80;;
81841;SDS011;71284;50.918;7.092;2024-02-16T10:46:48;8.23;;;2.17;;
81841;SDS011;71284;50.918;7.092;2024-02-16T10:49:15;6.90;;;2.70;;
81841;SDS011;71284;50.918;7.092;2024-02-16T10:51:44;5.80;;;1.50;;
81841;SDS011;71284;50.918;7.092;2024-02-16T10:54:10;5.83;;;1.53;;
81841;SDS011;71284;50.918;7.092;2024-02-16T10:56:37;5.57;;;2.00;;
81841;SDS011;71284;50.918;7.092;2024-02-16T10:59:04;5.83;;;1.53;;
81841;SDS011;71284;50.918;7.092;2024-02-16T11:01:32;5.80;;;2.63;;
81841;SDS011;71284;50.918;7.092;2024-02-16T11:04:00;3.77;;;1.50;;
81841;SDS011;71284;50.918;7.092;2024-02-16T11:06:26;4.13;;;1.47;;
81841;SDS011;71284;50.918;7.092;2024-02-16T11:08:53;6.00;;;2.07;;
81841;SDS011;71284;50.918;7.092;2024-02-16T11:11:23;2.37;;;1.70;;
81841;SDS011;71284;50.918;7.092;2024-02-16T11:13:49;3.13;;;2.37;;
81841;SDS011;71284;50.918;7.092;2024-02-16T11:16:17;4.10;;;1.50;;
81841;SDS011;71284;50.918;7.092;2024-02-16T11:18:42;3.17;;;1.60;;
81841;SDS011;71284;50.918;7.092;2024-02-16T11:21:11;3.50;;;1.60;;
81841;SDS011;71284;50.918;7.092;2024-02-16T11:23:36;6.10;;;4.20;;
81841;SDS011;71284;50.918;7.092;2024-02-16T11:26:03;17.17;;;7.70;;
81841;SDS011;71284;50.918;7.092;2024-02-16T11:28:31;3.30;;;3.00;;
81841;SDS011;71284;50.918;7.092;2024-02-16T11:30:57;9.10;;;2.87;;
81841;SDS011;71284;50.918;7.092;2024-02-16T11:33:24;4.67;;;1.90;;
81841;SDS011;71284;50.918;7.092;2024-02-16T11:35:56;1.57;;;1.47;;
81841;SDS011;71284;50.918;7.092;2024-02-16T11:38:23;2.40;;;1.90;;
81841;SDS011;71284;50.918;7.092;2024-02-16T11:40:58;7.60;;;1.57;;
81841;SDS011;71284;50.918;7.092;2024-02-16T11:43:26;2.00;;;1.63;;
81841;SDS011;71284;50.918;7.092;2024-02-16T11:45:52;5.83;;;1.97;;
81841;SDS011;71284;50.918;7.092;2024-02-16T11:48:20;6.00;;;1.87;;
81841;SDS011;71284;50.918;7.092;2024-02-16T11:50:47;3.90;;;2.07;;
81841;SDS011;71284;50.918;7.092;2024-02-16T11:53:15;6.00;;;1.53;;
81841;SDS011;71284;50.918;7.092;2024-02-16T11:55:46;4.10;;;2.07;;
81841;SDS011;71284;50.918;7.092;2024-02-16T11:58:13;1.87;;;1.77;;
81841;SDS011;71284;50.918;7.092;2024-02-16T12:00:39;4.17;;;1.83;;
81841;SDS011;71284;50.918;7.092;2024-02-16T12:03:06;1.73;;;1.63;;
81841;SDS011;71284;50.918;7.092;2024-02-16T12:05:32;3.23;;;1.70;;
81841;SDS011;71284;50.918;7.092;2024-02-16T12:07:59;5.80;;;2.10;;
81841;SDS011;71284;50.918;7.092;2024-02-16T12:10:26;7.03;;;1.50;;
81841;SDS011;71284;50.918;7.092;2024-02-16T12:12:52;3.77;;;2.67;;
81841;SDS011;71284;50.918;7.092;2024-02-16T12:15:19;4.20;;;1.60;;
81841;SDS011;71284;50.918;7.092;2024-02-16T12:17:45;2.00;;;1.40;;
81841;SDS011;71284;50.918;7.092;2024-02-16T12:20:12;6.03;;;2.20;;
81841;SDS011;71284;50.918;7.092;2024-02-16T12:22:38;4.50;;;1.83;;
81841;SDS011;71284;50.918;7.092;2024-02-16T12:25:05;3.50;;;1.67;;
81841;SDS011;71284;50.918;7.092;2024-02-16T12:27:32;3.87;;;2.00;;
81841;SDS011;71284;50.918;7.092;2024-02-16T12:29:59;6.00;;;2.07;;
81841;SDS011;71284;50.918;7.092;2024-02-16T12:32:25;5.00;;;2.40;;
81841;SDS011;71284;50.918;7.092;2024-02-16T12:34:52;2.70;;;2.27;;
81841;SDS011;71284;50.918;7.092;2024-02-16T12:37:19;6.90;;;2.13;;
81841;SDS011;71284;50.918;7.092;2024-02-16T12:39:45;4.93;;;2.23;;
81841;SDS011;71284;50.918;7.092;2024-02-16T12:42:12;5.80;;;3.17;;
81841;SDS011;71284;50.918;7.092;2024-02-16T12:44:38;7.50;;;2.17;;
81841;SDS011;71284;50.918;7.092;2024-02-16T12:47:05;7.60;;;5.10;;
81841;SDS011;71284;50.918;7.092;2024-02-16T12:49:31;3.70;;;1.80;;
81841;SDS011;71284;50.918;7.092;2024-02-16T12:51:58;6.53;;;2.60;;
81841;SDS011;71284;50.918;7.092;2024-02-16T12:54:25;4.40;;;2.60;;
81841;SDS011;71284;50.918;7.092;2024-02-16T12:56:51;3.97;;;2.37;;
81841;SDS011;71284;50.918;7.092;2024-02-16T12:59:18;3.20;;;2.60;;
81841;SDS011;71284;50.918;7.092;2024-02-16T13:01:44;6.30;;;1.93;;
81841;SDS011;71284;50.918;7.092;2024-02-16T13:04:11;5.10;;;2.33;;
81841;SDS011;71284;50.918;7.092;2024-02-16T13:06:38;2.50;;;2.30;;
81841;SDS011;71284;50.918;7.092;2024-02-16T13:09:04;3.73;;;2.57;;
81841;SDS011;71284;50.918;7.092;2024-02-16T13:11:31;2.10;;;1.80;;
81841;SDS011;71284;50.918;7.092;2024-02-16T13:13:57;3.47;;;2.20;;
81841;SDS011;71284;50.918;7.092;2024-02-16T13:16:24;4.83;;;2.30;;
81841;SDS011;71284;50.918;7.092;2024-02-16T13:18:51;3.50;;;2.80;;
81841;SDS011;71284;50.918;7.092;2024-02-16T13:21:17;5.43;;;2.63;;
81841;SDS011;71284;50.918;7.092;2024-02-16T13:23:44;7.13;;;2.30;;
81841;SDS011;71284;50.918;7.092;2024-02-16T13:26:10;3.20;;;2.00;;
81841;SDS011;71284;50.918;7.092;2024-02-16T13:28:37;5.97;;;3.60;;
81841;SDS011;71284;50.918;7.092;2024-02-16T13:31:04;12.03;;;2.17;;
81841;SDS011;71284;50.918;7.092;2024-02-16T13:33:30;5.43;;;4.00;;
81841;SDS011;71284;50.918;7.092;2024-02-16T13:35:57;6.63;;;3.07;;
81841;SDS011;71284;50.918;7.092;2024-02-16T13:38:23;3.43;;;2.77;;
81841;SDS011;71284;50.918;7.092;2024-02-16T13:40:50;5.63;;;2.83;;
81841;SDS011;71284;50.918;7.092;2024-02-16T13:43:16;3.07;;;2.30;;
81841;SDS011;71284;50.918;7.092;2024-02-16T13:45:50;5.53;;;3.37;;
81841;SDS011;71284;50.918;7.092;2024-02-16T13:48:16;8.83;;;3.50;;
81841;SDS011;71284;50.918;7.092;2024-02-16T13:50:44;5.70;;;3.50;;
81841;SDS011;71284;50.918;7.092;2024-02-16T13:53:10;10.20;;;3.43;;
81841;SDS011;71284;50.918;7.092;2024-02-16T13:55:37;12.30;;;4.17;;
81841;SDS011;71284;50.918;7.092;2024-02-16T13:58:03;9.53;;;3.77;;
81841;SDS011;71284;50.918;7.092;2024-02-16T14:00:30;4.90;;;2.60;;
81841;SDS011;71284;50.918;7.092;2024-02-16T14:02:57;10.83;;;3.70;;
81841;SDS011;71284;50.918;7.092;2024-02-16T14:05:23;9.43;;;4.00;;
81841;SDS011;71284;50.918;7.092;2024-02-16T14:07:50;4.77;;;3.63;;
81841;SDS011;71284;50.918;7.092;2024-02-16T14:10:16;12.03;;;3.20;;
81841;SDS011;71284;50.918;7.092;2024-02-16T14:12:44;6.87;;;3.47;;
81841;SDS011;71284;50.918;7.092;2024-02-16T14:15:10;9.90;;;4.57;;
81841;SDS011;71284;50.918;7.092;2024-02-16T14:17:37;4.70;;;3.20;;
81841;SDS011;71284;50.918;7.092;2024-02-16T14:20:04;7.80;;;4.00;;
81841;SDS011;71284;50.918;7.092;2024-02-16T14:22:31;5.60;;;3.03;;
81841;SDS011;71284;50.918;7.092;2024-02-16T14:24:57;10.77;;;3.50;;
81841;SDS011;71284;50.918;7.092;2024-02-16T14:27:24;4.63;;;3.83;;
81841;SDS011;71284;50.918;7.092;2024-02-16T14:29:51;11.70;;;4.10;;
81841;SDS011;71284;50.918;7.092;2024-02-16T14:32:17;6.43;;;3.00;;
81841;SDS011;71284;50.918;7.092;2024-02-16T14:34:44;15.27;;;5.50;;
81841;SDS011;71284;50.918;7.092;2024-02-16T14:37:10;5.35;;;3.40;;
81841;SDS011;71284;50.918;7.092;2024-02-16T14:39:37;6.57;;;2.73;;
81841;SDS011;71284;50.918;7.092;2024-02-16T14:42:04;5.63;;;3.10;;
81841;SDS011;71284;50.918;7.092;2024-02-16T14:44:30;7.63;;;5.00;;
81841;SDS011;71284;50.918;7.092;2024-02-16T14:46:57;3.67;;;3.37;;